Time;durP1;ratioP1;P1;durP2;ratioP2;P2;SDS_P1;SDS_P2;PMS_P1;PMS_P2;Temp;Humidity;BMP_temperature;BMP_pressure;BME280_temperature;BME280_humidity;BME280_pressure;Samples;Min_cycle;Max_cycle;Signal;HPM_P1;HPM_P2
2021/07/01 00:00:26;;;;;;;3.10;2.90;;;17.00;8.40;;;;;;4916586;29;20612;-56
2021/07/01 00:02:51;;;;;;;2.80;2.60;;;17.00;11.90;;;;;;4914223;29;20190;-53
2021/07/01 00:05:17;;;;;;;2.80;2.60;;;17.10;8.10;;;;;;4919779;29;20443;-55
2021/07/01 00:07:45;;;;;;;3.60;2.87;;;17.20;1.00;;;;;;4922869;29;20196;-55
2021/07/01 00:10:17;;;;;;;3.27;2.97;;;17.40;1.00;;;;;;4931706;29;20524;-51
2021/07/01 00:12:43;;;;;;;2.83;2.63;;;17.50;1.00;;;;;;4929241;29;20425;-54
2021/07/01 00:15:13;;;;;;;2.90;2.70;;;17.50;1.00;;;;;;4925833;29;20635;-53
2021/07/01 00:17:40;;;;;;;2.67;2.53;;;17.60;1.00;;;;;;4940028;29;20191;-53
2021/07/01 00:20:07;;;;;;;4.60;2.73;;;17.60;1.00;;;;;;4920085;29;21027;-56
2021/07/01 00:22:32;;;;;;;4.40;2.80;;;17.70;1.00;;;;;;4914476;29;20446;-56
2021/07/01 00:24:58;;;;;;;3.00;2.80;;;17.70;1.00;;;;;;4919514;29;20511;-55
2021/07/01 00:27:24;;;;;;;2.90;2.70;;;17.70;1.00;;;;;;4933076;29;20479;-51
2021/07/01 00:29:49;;;;;;;3.00;2.80;;;17.70;1.00;;;;;;4932888;29;20555;-54
2021/07/01 00:32:15;;;;;;;2.90;2.70;;;17.70;1.00;;;;;;4932680;29;20442;-54
2021/07/01 00:34:40;;;;;;;2.80;2.60;;;17.80;1.00;;;;;;4914470;29;20197;-54
2021/07/01 00:37:06;;;;;;;3.03;2.80;;;17.70;1.00;;;;;;4920691;29;20198;-58
2021/07/01 00:39:32;;;;;;;2.50;2.30;;;17.80;1.00;;;;;;4926728;29;20190;-52
2021/07/01 00:41:57;;;;;;;2.97;2.77;;;17.80;1.00;;;;;;4915813;29;20261;-54
2021/07/01 00:44:23;;;;;;;2.60;2.40;;;17.70;1.00;;;;;;4930988;29;20769;-53
2021/07/01 00:46:48;;;;;;;2.70;2.50;;;17.60;1.00;;;;;;4913453;29;20218;-55
2021/07/01 00:49:14;;;;;;;3.20;3.00;;;17.70;1.00;;;;;;4912765;29;20190;-54
2021/07/01 00:51:40;;;;;;;3.20;3.00;;;17.60;1.00;;;;;;4927378;29;20971;-53
2021/07/01 00:54:07;;;;;;;3.10;2.90;;;17.60;1.00;;;;;;4931292;29;20257;-54
2021/07/01 00:56:39;;;;;;;3.37;3.13;;;17.60;1.00;;;;;;4930876;29;20181;-50
2021/07/01 00:59:07;;;;;;;3.30;3.00;;;17.60;1.00;;;;;;4930921;29;20448;-56
2021/07/01 01:01:33;;;;;;;2.43;2.33;;;17.50;1.00;;;;;;4936958;29;20455;-54
2021/07/01 01:03:59;;;;;;;2.93;2.73;;;17.50;1.00;;;;;;4926309;29;20418;-55
2021/07/01 01:06:25;;;;;;;2.70;2.50;;;17.40;1.00;;;;;;4918872;29;20701;-55
2021/07/01 01:08:51;;;;;;;3.00;2.80;;;17.40;1.00;;;;;;4930418;29;20943;-59
2021/07/01 01:11:23;;;;;;;2.80;2.70;;;17.50;1.00;;;;;;4915564;29;20434;-54
2021/07/01 01:13:51;;;;;;;2.60;2.50;;;17.50;1.00;;;;;;4914654;29;20446;-57
2021/07/01 01:16:17;;;;;;;3.90;2.80;;;17.50;1.00;;;;;;4919105;29;20438;-56
2021/07/01 01:18:42;;;;;;;3.10;2.90;;;17.50;1.00;;;;;;4921397;29;20546;-54
2021/07/01 01:21:22;;;;;;;3.00;2.80;;;17.50;1.00;;;;;;4916557;29;20294;-55
2021/07/01 01:23:48;;;;;;;3.07;2.80;;;17.60;1.00;;;;;;4917062;29;20232;-55
2021/07/01 01:26:14;;;;;;;3.17;2.97;;;17.40;1.00;;;;;;4924657;29;20505;-55
2021/07/01 01:28:40;;;;;;;3.20;3.00;;;17.40;1.00;;;;;;4927209;29;20716;-56
2021/07/01 01:31:06;;;;;;;2.43;2.23;;;17.30;1.00;;;;;;4924486;29;20437;-52
2021/07/01 01:33:32;;;;;;;3.10;2.87;;;17.30;1.00;;;;;;4916775;29;20182;-55
2021/07/01 01:35:57;;;;;;;2.90;2.63;;;17.20;1.00;;;;;;4917374;29;20213;-53
2021/07/01 01:38:23;;;;;;;2.67;2.57;;;17.30;1.00;;;;;;4918498;29;20508;-56
2021/07/01 01:40:50;;;;;;;2.83;2.63;;;17.10;1.00;;;;;;4921409;29;20591;-53
2021/07/01 01:43:17;;;;;;;2.90;2.73;;;17.00;1.00;;;;;;4916662;29;20272;-51
2021/07/01 01:45:43;;;;;;;2.90;2.70;;;16.90;1.00;;;;;;4917943;29;20512;-56
2021/07/01 01:48:09;;;;;;;3.40;3.10;;;16.80;1.00;;;;;;4924689;29;20425;-55
2021/07/01 01:50:35;;;;;;;3.10;2.90;;;16.80;1.00;;;;;;4919804;29;20434;-53
2021/07/01 01:53:01;;;;;;;3.13;2.93;;;16.60;1.00;;;;;;4929648;29;20444;-53
2021/07/01 01:55:27;;;;;;;3.03;2.83;;;16.50;1.00;;;;;;4929664;29;20920;-51
2021/07/01 01:57:53;;;;;;;3.23;3.03;;;16.50;1.00;;;;;;4931887;29;20452;-52
2021/07/01 02:00:21;;;;;;;3.30;3.00;;;16.40;1.00;;;;;;4919046;29;20754;-59
2021/07/01 02:02:47;;;;;;;3.77;3.27;;;16.40;1.00;;;;;;4916253;29;20502;-55
2021/07/01 02:05:13;;;;;;;3.10;2.90;;;16.50;1.00;;;;;;4916185;29;20469;-56
2021/07/01 02:07:40;;;;;;;3.20;3.00;;;16.60;1.00;;;;;;4920267;29;21128;-53
2021/07/01 02:10:08;;;;;;;3.33;3.03;;;16.60;1.00;;;;;;4917030;29;20863;-53
2021/07/01 02:12:34;;;;;;;2.93;2.73;;;16.50;1.00;;;;;;4902849;29;20435;-55
2021/07/01 02:15:01;;;;;;;3.27;3.07;;;16.50;1.00;;;;;;4919945;29;21014;-53
2021/07/01 02:17:26;;;;;;;3.03;2.83;;;16.50;1.00;;;;;;4936455;29;20957;-55
2021/07/01 02:19:52;;;;;;;2.90;2.70;;;16.50;1.00;;;;;;4929027;29;20514;-54
2021/07/01 02:22:17;;;;;;;2.90;2.70;;;16.40;1.00;;;;;;4926196;29;20286;-53
2021/07/01 02:24:43;;;;;;;3.03;2.83;;;16.30;1.00;;;;;;4915889;29;20189;-55
2021/07/01 02:27:09;;;;;;;3.20;3.00;;;16.20;1.20;;;;;;4916676;29;20569;-55
2021/07/01 02:29:35;;;;;;;2.90;2.70;;;16.20;1.00;;;;;;4948219;29;20193;-57
2021/07/01 02:32:01;;;;;;;3.13;2.93;;;16.10;9.60;;;;;;4944539;29;20447;-54
2021/07/01 02:34:27;;;;;;;3.10;2.90;;;16.00;17.90;;;;;;4932795;29;20205;-53
2021/07/01 02:36:52;;;;;;;3.40;3.20;;;15.90;24.90;;;;;;4930590;29;20898;-53
2021/07/01 02:39:18;;;;;;;3.37;3.07;;;15.90;22.70;;;;;;4915465;29;20562;-53
2021/07/01 02:41:43;;;;;;;3.07;2.87;;;16.00;19.90;;;;;;4915797;29;20252;-54
2021/07/01 02:44:09;;;;;;;3.90;3.23;;;15.90;25.90;;;;;;4915421;29;20218;-55
2021/07/01 02:46:34;;;;;;;3.87;3.57;;;15.90;29.50;;;;;;4933624;29;20212;-60
2021/07/01 02:49:00;;;;;;;2.90;2.70;;;15.80;31.70;;;;;;4917454;29;20220;-54
2021/07/01 02:51:26;;;;;;;3.60;3.40;;;15.70;34.20;;;;;;4915632;29;20675;-54
2021/07/01 02:53:51;;;;;;;3.60;3.30;;;15.70;33.80;;;;;;4918187;29;20205;-53
2021/07/01 02:56:18;;;;;;;3.77;3.00;;;15.60;35.00;;;;;;4914820;29;20295;-52
2021/07/01 02:58:43;;;;;;;3.40;3.20;;;15.50;42.60;;;;;;4928757;29;20194;-55
2021/07/01 03:01:09;;;;;;;3.27;3.07;;;15.50;49.60;;;;;;4930221;29;20450;-56
2021/07/01 03:03:34;;;;;;;4.13;3.30;;;15.50;55.40;;;;;;4925640;29;20357;-56
2021/07/01 03:06:00;;;;;;;3.60;3.07;;;15.40;55.60;;;;;;4926492;29;20225;-54
2021/07/01 03:08:25;;;;;;;3.33;3.13;;;15.40;55.10;;;;;;4915132;29;20669;-55
2021/07/01 03:10:51;;;;;;;3.20;3.00;;;15.40;56.70;;;;;;4914714;29;20194;-51
2021/07/01 03:13:16;;;;;;;3.40;3.10;;;15.40;56.90;;;;;;4915105;29;20608;-53
2021/07/01 03:15:42;;;;;;;3.33;3.13;;;15.30;55.40;;;;;;4914168;29;20195;-54
2021/07/01 03:18:07;;;;;;;4.43;3.43;;;15.30;56.90;;;;;;4914563;29;20309;-54
2021/07/01 03:20:33;;;;;;;4.80;3.47;;;15.40;52.90;;;;;;4915020;29;20195;-55
2021/07/01 03:22:59;;;;;;;3.33;3.10;;;15.40;55.10;;;;;;4914800;29;20199;-57
2021/07/01 03:25:24;;;;;;;3.50;3.30;;;15.40;53.00;;;;;;4914196;29;20205;-52
2021/07/01 03:27:50;;;;;;;3.53;3.33;;;15.40;52.70;;;;;;4918133;29;20642;-56
2021/07/01 03:30:16;;;;;;;3.30;3.10;;;15.40;52.50;;;;;;4928649;29;20187;-53
2021/07/01 03:32:41;;;;;;;4.03;3.27;;;15.30;53.80;;;;;;4921092;29;20183;-58
2021/07/01 03:35:07;;;;;;;3.73;3.50;;;15.40;59.60;;;;;;4917821;29;20194;-54
2021/07/01 03:37:33;;;;;;;3.37;3.17;;;15.40;59.60;;;;;;4929381;29;20213;-56
2021/07/01 03:39:59;;;;;;;3.20;3.00;;;15.40;58.30;;;;;;4931573;29;20457;-53
2021/07/01 03:42:25;;;;;;;3.60;3.30;;;15.50;54.70;;;;;;4918731;29;20187;-56
2021/07/01 03:44:51;;;;;;;3.70;3.40;;;15.80;37.80;;;;;;4916310;29;20224;-54
2021/07/01 03:47:16;;;;;;;3.70;3.40;;;15.90;34.90;;;;;;4921577;29;20501;-53
2021/07/01 03:49:42;;;;;;;3.80;3.50;;;15.90;34.20;;;;;;4913061;29;20209;-55
2021/07/01 03:52:08;;;;;;;4.23;3.93;;;15.90;35.80;;;;;;4919462;29;20182;-55
2021/07/01 03:54:33;;;;;;;4.00;3.63;;;16.00;34.50;;;;;;4921292;29;20188;-56
2021/07/01 03:57:00;;;;;;;4.57;4.17;;;16.00;33.20;;;;;;4921557;29;20212;-56
2021/07/01 03:59:26;;;;;;;4.03;3.63;;;16.20;26.60;;;;;;4929384;29;20269;-54
2021/07/01 04:01:58;;;;;;;3.73;3.50;;;16.20;27.30;;;;;;5056801;28;21047;-55
2021/07/01 04:04:24;;;;;;;3.80;3.53;;;16.20;30.50;;;;;;5040383;28;20468;-54
2021/07/01 04:06:50;;;;;;;3.80;3.50;;;16.20;35.30;;;;;;5054833;28;20206;-56
2021/07/01 04:09:15;;;;;;;3.90;3.60;;;16.20;37.60;;;;;;5026255;28;20223;-54
2021/07/01 04:11:41;;;;;;;3.87;3.47;;;16.20;41.50;;;;;;5028502;28;20224;-54
2021/07/01 04:14:06;;;;;;;4.00;3.70;;;16.30;45.00;;;;;;5035386;28;20223;-58
2021/07/01 04:16:32;;;;;;;3.73;3.53;;;16.30;45.50;;;;;;5039141;28;20670;-54
2021/07/01 04:18:58;;;;;;;3.77;3.47;;;16.30;45.60;;;;;;5031500;28;20188;-55
2021/07/01 04:21:27;;;;;;;3.72;3.42;;;16.40;40.90;;;;;;5039301;28;20199;-52
2021/07/01 04:23:56;;;;;;;3.93;3.63;;;16.50;30.20;;;;;;5043629;28;20689;-53
2021/07/01 04:26:22;;;;;;;4.10;3.80;;;16.70;16.10;;;;;;5032151;28;20452;-53
2021/07/01 04:28:48;;;;;;;4.27;3.97;;;16.90;10.50;;;;;;5039333;28;20440;-55
2021/07/01 04:31:14;;;;;;;4.23;3.93;;;17.00;7.30;;;;;;5032746;28;20468;-53
2021/07/01 04:33:39;;;;;;;4.87;3.97;;;17.10;4.90;;;;;;5038316;28;20451;-54
2021/07/01 04:36:05;;;;;;;4.60;3.70;;;17.10;7.10;;;;;;5036647;28;20184;-55
2021/07/01 04:38:30;;;;;;;4.23;3.80;;;17.20;4.80;;;;;;5042287;28;20189;-57
2021/07/01 04:40:56;;;;;;;4.70;4.40;;;17.30;1.00;;;;;;5034009;28;20679;-53
2021/07/01 04:43:22;;;;;;;4.20;3.90;;;17.40;1.00;;;;;;5037943;28;20196;-54
2021/07/01 04:45:48;;;;;;;4.10;3.80;;;17.40;1.00;;;;;;5037653;28;20211;-57
2021/07/01 04:48:13;;;;;;;4.17;3.87;;;17.60;1.00;;;;;;5032958;28;20441;-56
2021/07/01 04:50:39;;;;;;;4.67;4.27;;;17.70;1.00;;;;;;5038346;28;20233;-54
2021/07/01 04:53:05;;;;;;;4.90;4.50;;;17.70;1.00;;;;;;5033850;28;20704;-52
2021/07/01 04:55:30;;;;;;;5.63;4.50;;;17.70;1.00;;;;;;5041179;28;20185;-55
2021/07/01 04:57:56;;;;;;;7.00;4.50;;;17.70;2.90;;;;;;5040177;28;20197;-54
2021/07/01 05:00:22;;;;;;;4.90;4.40;;;17.80;4.60;;;;;;5062600;28;20476;-56
2021/07/01 05:02:47;;;;;;;4.67;4.27;;;17.90;1.00;;;;;;5050474;28;20200;-56
2021/07/01 05:05:13;;;;;;;5.13;4.73;;;17.90;1.00;;;;;;5047551;28;20300;-54
2021/07/01 05:07:46;;;;;;;5.03;4.63;;;18.00;1.00;;;;;;5070107;28;20188;-56
2021/07/01 05:10:14;;;;;;;5.30;4.90;;;18.10;1.00;;;;;;5065814;28;20212;-56
2021/07/01 05:12:39;;;;;;;5.90;5.00;;;18.20;1.00;;;;;;5041756;28;20478;-57
2021/07/01 05:15:06;;;;;;;5.40;5.00;;;18.30;1.00;;;;;;5049031;28;20186;-56
2021/07/01 05:17:33;;;;;;;5.33;4.93;;;18.50;1.00;;;;;;5041652;28;20916;-50
2021/07/01 05:19:59;;;;;;;7.43;6.20;;;18.60;1.00;;;;;;5033556;28;20449;-51
2021/07/01 05:22:24;;;;;;;5.87;5.37;;;18.60;1.00;;;;;;5040892;28;20498;-60
2021/07/01 05:24:50;;;;;;;7.83;7.10;;;18.60;1.00;;;;;;5036326;28;20552;-58
2021/07/01 05:27:15;;;;;;;9.30;8.40;;;18.70;1.00;;;;;;5043237;28;20904;-61
2021/07/01 05:29:41;;;;;;;8.43;7.73;;;18.70;1.00;;;;;;5039283;28;20204;-56
2021/07/01 05:32:07;;;;;;;8.33;7.63;;;18.70;1.00;;;;;;5040707;28;20182;-55
2021/07/01 05:34:32;;;;;;;7.87;7.17;;;18.70;1.00;;;;;;5041766;28;20261;-55
2021/07/01 05:36:58;;;;;;;8.57;7.87;;;18.70;1.00;;;;;;5045546;28;20199;-53
2021/07/01 05:39:23;;;;;;;8.43;7.60;;;18.70;1.00;;;;;;5050456;28;20178;-57
2021/07/01 05:41:49;;;;;;;9.30;8.50;;;18.70;1.00;;;;;;5044199;28;20667;-54
2021/07/01 05:44:15;;;;;;;8.80;8.00;;;18.60;1.00;;;;;;5055993;28;20636;-55
2021/07/01 05:46:40;;;;;;;8.40;7.70;;;18.70;1.00;;;;;;5039623;28;20540;-57
2021/07/01 05:49:06;;;;;;;9.23;8.40;;;18.70;1.00;;;;;;5050639;28;20190;-60
2021/07/01 05:51:34;;;;;;;8.90;8.10;;;18.60;1.00;;;;;;5038260;28;20610;-56
2021/07/01 05:56:36;;;;;;;8.80;8.10;;;18.70;1.00;;;;;;5039924;28;20441;-60
2021/07/01 05:59:06;;;;;;;9.10;8.20;;;18.60;1.00;;;;;;5047790;28;20417;-60
2021/07/01 06:01:32;;;;;;;8.83;8.13;;;18.50;1.00;;;;;;5046560;28;20521;-59
2021/07/01 06:03:57;;;;;;;9.30;8.50;;;18.50;1.00;;;;;;5031428;28;20764;-59
2021/07/01 06:06:23;;;;;;;10.03;7.50;;;18.50;1.00;;;;;;5041695;28;20476;-60
2021/07/01 06:08:49;;;;;;;8.50;7.80;;;18.60;1.00;;;;;;5050806;28;20530;-61
2021/07/01 06:11:16;;;;;;;8.00;7.40;;;18.60;1.00;;;;;;5041115;28;20292;-59
2021/07/01 06:13:42;;;;;;;8.53;7.73;;;18.70;1.00;;;;;;5037050;28;20435;-60
2021/07/01 06:16:14;;;;;;;7.80;7.10;;;18.70;1.00;;;;;;5040494;28;20837;-61
2021/07/01 06:18:41;;;;;;;8.13;7.43;;;18.80;1.00;;;;;;5045305;28;20444;-59
2021/07/01 06:21:07;;;;;;;7.60;7.00;;;18.80;1.00;;;;;;5043968;28;20535;-59
2021/07/01 06:23:32;;;;;;;7.80;7.10;;;18.80;1.00;;;;;;5047545;28;20436;-60
2021/07/01 06:25:59;;;;;;;7.50;6.87;;;18.80;1.00;;;;;;5048660;28;20532;-60
2021/07/01 06:28:26;;;;;;;7.77;7.17;;;18.90;1.00;;;;;;5047674;28;20205;-58
2021/07/01 06:30:54;;;;;;;8.23;7.43;;;18.90;1.00;;;;;;5034493;28;20499;-59
2021/07/01 06:33:20;;;;;;;7.57;6.90;;;18.90;1.00;;;;;;5034036;28;20841;-60
2021/07/01 06:35:51;;;;;;;8.10;7.40;;;18.90;1.00;;;;;;5021800;28;20468;-59
2021/07/01 06:38:19;;;;;;;8.67;7.60;;;19.00;1.00;;;;;;5023793;28;20437;-59
2021/07/01 06:40:49;;;;;;;8.80;8.00;;;19.00;1.00;;;;;;5035681;28;20431;-63
2021/07/01 06:43:18;;;;;;;8.27;7.23;;;19.10;1.00;;;;;;5035676;28;20791;-61
2021/07/01 06:45:44;;;;;;;8.90;8.20;;;19.20;1.00;;;;;;5017981;28;21145;-62
2021/07/01 06:48:11;;;;;;;8.03;7.33;;;19.40;1.00;;;;;;5026154;28;20424;-63
2021/07/01 06:50:39;;;;;;;8.53;7.73;;;19.50;1.00;;;;;;5028485;28;20460;-60
2021/07/01 06:53:04;;;;;;;8.73;8.03;;;19.70;1.00;;;;;;5027918;28;20478;-63
2021/07/01 06:55:30;;;;;;;9.53;7.83;;;19.90;1.00;;;;;;5032810;28;20432;-61
2021/07/01 06:57:56;;;;;;;8.43;7.73;;;19.90;1.00;;;;;;5032812;28;20303;-61
2021/07/01 07:00:23;;;;;;;8.67;7.97;;;20.10;1.00;;;;;;5030381;28;20256;-60
2021/07/01 07:02:51;;;;;;;8.27;7.57;;;20.00;1.00;;;;;;5030925;28;20450;-66
2021/07/01 07:05:18;;;;;;;7.37;6.77;;;20.10;1.00;;;;;;5018581;28;20447;-60
2021/07/01 07:07:46;;;;;;;7.67;7.07;;;20.00;1.00;;;;;;5026995;28;20472;-62
2021/07/01 07:10:15;;;;;;;7.85;7.25;;;20.00;1.00;;;;;;5018977;28;20474;-60
2021/07/01 07:12:43;;;;;;;7.80;7.20;;;19.90;1.00;;;;;;5039840;28;20641;-60
2021/07/01 07:15:14;;;;;;;7.90;7.10;;;19.80;1.00;;;;;;5019366;28;21744;-62
2021/07/01 07:17:41;;;;;;;8.03;7.37;;;19.80;1.00;;;;;;5028817;28;20432;-59
2021/07/01 07:20:08;;;;;;;7.00;6.50;;;19.90;1.00;;;;;;5027293;28;20437;-60
2021/07/01 07:22:41;;;;;;;7.38;6.78;;;20.00;1.00;;;;;;5038295;28;20440;-67
2021/07/01 07:25:10;;;;;;;7.20;6.60;;;20.10;1.00;;;;;;5033979;28;20650;-60
2021/07/01 07:27:38;;;;;;;7.57;6.97;;;20.10;1.00;;;;;;5041884;28;20447;-60
2021/07/01 07:30:06;;;;;;;9.57;6.70;;;20.10;1.00;;;;;;5046421;28;20458;-59
2021/07/01 07:32:32;;;;;;;7.63;6.60;;;20.30;1.00;;;;;;5045344;28;20185;-60
2021/07/01 07:34:58;;;;;;;7.55;7.00;;;20.40;1.00;;;;;;5036141;28;20466;-59
2021/07/01 07:37:24;;;;;;;7.67;7.07;;;20.40;1.00;;;;;;5047074;28;20205;-58
2021/07/01 07:39:50;;;;;;;7.80;7.20;;;20.40;1.00;;;;;;5042097;28;22401;-59
2021/07/01 07:42:17;;;;;;;7.03;6.50;;;20.40;1.00;;;;;;5046663;28;20640;-59
2021/07/01 07:44:43;;;;;;;8.10;7.50;;;20.40;99.90;;;;;;5036346;28;20437;-60
2021/07/01 07:47:15;;;;;;;7.90;7.20;;;20.30;1.00;;;;;;5042781;28;20956;-60
2021/07/01 07:49:42;;;;;;;8.30;7.70;;;20.50;1.00;;;;;;5027886;28;20432;-61
2021/07/01 07:52:10;;;;;;;8.17;7.57;;;20.60;99.90;;;;;;5042933;28;20497;-59
2021/07/01 07:54:55;;;;;;;7.70;7.10;;;20.60;1.00;;;;;;5047533;28;20494;-60
2021/07/01 07:57:27;;;;;;;7.83;7.23;;;20.60;99.90;;;;;;5043448;28;20428;-60
2021/07/01 07:59:54;;;;;;;7.57;7.07;;;20.80;99.90;;;;;;5033680;28;20608;-57
2021/07/01 08:02:31;;;;;;;7.38;6.88;;;21.00;99.90;;;;;;5045342;28;20464;-66
2021/07/01 08:05:00;;;;;;;8.00;7.40;;;21.10;99.90;;;;;;5034258;28;20648;-58
2021/07/01 08:07:26;;;;;;;7.30;6.60;;;21.30;99.90;;;;;;5029810;28;20429;-60
2021/07/01 08:09:52;;;;;;;7.03;6.43;;;21.30;1.00;;;;;;5040959;28;20428;-59
2021/07/01 08:12:19;;;;;;;7.13;6.63;;;21.40;92.70;;;;;;5043501;28;20660;-67
2021/07/01 08:14:45;;;;;;;6.77;6.37;;;21.40;1.00;;;;;;5047359;28;20636;-61
2021/07/01 08:17:14;;;;;;;7.20;6.70;;;21.40;99.90;;;;;;5039207;28;20486;-60
2021/07/01 08:19:40;;;;;;;7.47;6.97;;;21.50;99.90;;;;;;5036971;28;20186;-60
2021/07/01 08:22:06;;;;;;;7.50;7.00;;;21.50;1.00;;;;;;5046268;28;20424;-59
2021/07/01 08:24:33;;;;;;;6.72;6.22;;;21.40;1.00;;;;;;5046712;28;20448;-60
2021/07/01 08:27:00;;;;;;;7.27;6.77;;;21.30;99.90;;;;;;5044587;28;20221;-65
2021/07/01 08:29:27;;;;;;;7.27;6.77;;;21.50;1.00;;;;;;5043126;28;20436;-56
2021/07/01 08:31:52;;;;;;;6.60;6.10;;;21.60;1.00;;;;;;5029595;28;20946;-58
2021/07/01 08:34:22;;;;;;;7.90;7.33;;;21.50;99.90;;;;;;5035211;28;20435;-60
2021/07/01 08:36:49;;;;;;;7.30;6.80;;;21.30;99.90;;;;;;5040351;28;20178;-63
2021/07/01 08:39:15;;;;;;;7.10;6.60;;;21.20;1.00;;;;;;5045026;28;20445;-57
2021/07/01 08:41:44;;;;;;;6.63;6.23;;;21.20;1.00;;;;;;5033714;28;20922;-60
2021/07/01 08:44:21;;;;;;;6.43;5.97;;;21.10;31.90;;;;;;5036595;28;20193;-61
2021/07/01 08:46:49;;;;;;;6.70;6.30;;;21.20;1.00;;;;;;5046271;28;20484;-61
2021/07/01 08:49:46;;;;;;;6.40;5.87;;;21.20;1.00;;;;;;5049634;28;20201;-67
2021/07/01 08:52:15;;;;;;;6.57;6.17;;;21.10;55.80;;;;;;5044134;28;20440;-59
2021/07/01 08:54:43;;;;;;;6.47;6.00;;;21.00;99.90;;;;;;5046109;28;20424;-63
2021/07/01 08:57:15;;;;;;;6.97;6.47;;;21.20;99.90;;;;;;5037691;28;20186;-65
2021/07/01 08:59:58;;;;;;;6.33;5.83;;;21.50;1.00;;;;;;5045380;28;20432;-60
2021/07/01 09:02:33;;;;;;;6.37;5.97;;;21.60;1.00;;;;;;5042440;28;20454;-59
2021/07/01 09:05:01;;;;;;;6.77;6.30;;;21.60;1.00;;;;;;5048451;28;20790;-59
2021/07/01 09:07:27;;;;;;;6.87;6.47;;;21.60;99.90;;;;;;5050448;28;20436;-60
2021/07/01 09:09:55;;;;;;;6.47;6.07;;;21.40;1.00;;;;;;5046420;28;20509;-60
2021/07/01 09:12:23;;;;;;;6.10;5.60;;;21.40;1.00;;;;;;5037305;28;20463;-59
2021/07/01 09:15:00;;;;;;;4.93;4.63;;;21.20;11.60;;;;;;5048720;28;20478;-69
2021/07/01 09:17:27;;;;;;;5.77;5.37;;;21.00;82.80;;;;;;5043784;28;20440;-60
2021/07/01 09:19:55;;;;;;;5.03;4.63;;;20.60;99.90;;;;;;5048221;28;20461;-60
2021/07/01 09:22:22;;;;;;;4.73;3.73;;;20.50;1.00;;;;;;5044568;28;20440;-58
2021/07/01 09:24:50;;;;;;;4.40;4.00;;;20.40;1.00;;;;;;5030974;28;20405;-62
2021/07/01 09:27:16;;;;;;;3.90;3.70;;;20.30;1.00;;;;;;5046361;28;20468;-61
2021/07/01 09:29:43;;;;;;;3.95;3.70;;;20.10;1.00;;;;;;5038518;28;20426;-59
2021/07/01 09:32:10;;;;;;;4.37;4.07;;;20.00;1.00;;;;;;5045280;28;20182;-60
2021/07/01 09:34:36;;;;;;;3.67;3.47;;;20.20;1.00;;;;;;5031281;28;20444;-60
2021/07/01 09:37:03;;;;;;;4.00;3.70;;;20.30;1.00;;;;;;5039639;28;20482;-59
2021/07/01 09:39:31;;;;;;;3.97;3.77;;;20.40;1.00;;;;;;5026552;28;20287;-62
2021/07/01 09:42:00;;;;;;;4.40;4.10;;;20.60;1.00;;;;;;5041212;28;20521;-58
2021/07/01 09:44:27;;;;;;;3.70;3.50;;;20.80;1.00;;;;;;5031126;28;20436;-61
2021/07/01 09:46:58;;;;;;;3.07;2.87;;;20.80;99.90;;;;;;5022056;28;20684;-59
2021/07/01 09:49:31;;;;;;;3.33;3.13;;;20.70;1.00;;;;;;5034511;28;21392;-60
2021/07/01 09:51:59;;;;;;;3.37;3.17;;;20.40;99.90;;;;;;5024081;28;20458;-60
2021/07/01 09:54:30;;;;;;;2.97;2.83;;;20.30;99.90;;;;;;5030644;28;20408;-60
2021/07/01 09:57:00;;;;;;;3.33;3.10;;;20.20;99.90;;;;;;5048496;28;20421;-58
2021/07/01 09:59:33;;;;;;;3.70;3.50;;;20.10;99.90;;;;;;5054929;28;20428;-58
2021/07/01 10:02:20;;;;;;;3.23;3.03;;;20.10;99.90;;;;;;5031995;28;20463;-57
2021/07/01 10:04:47;;;;;;;3.47;3.20;;;20.30;1.00;;;;;;5045863;28;20766;-57
2021/07/01 10:07:21;;;;;;;3.07;2.97;;;20.50;99.90;;;;;;5037565;28;20531;-54
2021/07/01 10:09:50;;;;;;;2.77;2.67;;;20.50;99.90;;;;;;5038625;28;20444;-55
2021/07/01 10:12:47;;;;;;;3.20;3.00;;;20.50;99.90;;;;;;5052994;28;20431;-59
2021/07/01 10:15:27;;;;;;;3.53;3.30;;;20.90;99.90;;;;;;5050350;28;20439;-59
2021/07/01 10:18:12;;;;;;;3.13;2.93;;;21.30;1.00;;;;;;5044836;28;20895;-58
2021/07/01 10:20:45;;;;;;;3.23;3.03;;;21.70;1.00;;;;;;5038421;28;20428;-58
2021/07/01 10:23:25;;;;;;;3.27;3.07;;;22.30;99.90;;;;;;5039962;28;20458;-61
2021/07/01 10:25:53;;;;;;;3.20;3.00;;;22.40;99.90;;;;;;5041817;28;20452;-59
2021/07/01 10:28:21;;;;;;;3.10;2.90;;;22.10;99.90;;;;;;5037829;28;20428;-63
2021/07/01 10:31:02;;;;;;;3.20;3.00;;;22.40;99.90;;;;;;5040517;28;20476;-58
2021/07/01 10:33:33;;;;;;;3.70;3.50;;;22.60;99.90;;;;;;5039967;28;20423;-58
2021/07/01 10:36:02;;;;;;;3.13;2.93;;;22.90;41.00;;;;;;5048588;28;20444;-58
2021/07/01 10:38:41;;;;;;;3.70;3.50;;;23.00;99.90;;;;;;5041791;28;20437;-54
2021/07/01 10:41:08;;;;;;;4.95;3.30;;;23.20;17.60;;;;;;5039220;28;20463;-60
2021/07/01 10:43:45;;;;;;;3.70;3.50;;;23.40;1.00;;;;;;5040665;28;20189;-59
2021/07/01 10:46:12;;;;;;;3.10;3.00;;;23.50;99.90;;;;;;5037773;28;20459;-58
2021/07/01 10:48:38;;;;;;;3.20;3.00;;;23.30;99.90;;;;;;5040137;28;20758;-59
2021/07/01 10:51:08;;;;;;;2.77;2.57;;;23.40;99.90;;;;;;5044872;28;21110;-67
2021/07/01 10:53:37;;;;;;;3.30;3.13;;;23.40;1.00;;;;;;5042255;28;20426;-60
2021/07/01 10:56:23;;;;;;;2.73;2.63;;;23.40;99.90;;;;;;5042626;28;20181;-64
2021/07/01 10:58:57;;;;;;;3.00;2.90;;;23.60;99.90;;;;;;5045334;28;20975;-59
2021/07/01 11:01:30;;;;;;;3.10;3.00;;;23.90;1.00;;;;;;5045172;28;20514;-60
2021/07/01 11:04:15;;;;;;;3.40;3.20;;;24.40;99.90;;;;;;5043967;28;20453;-60
2021/07/01 11:06:58;;;;;;;3.20;3.00;;;24.40;99.90;;;;;;5034984;28;20445;-60
2021/07/01 11:09:25;;;;;;;2.70;2.60;;;23.70;99.90;;;;;;5040297;28;20566;-59
2021/07/01 11:12:02;;;;;;;3.20;3.00;;;23.40;99.90;;;;;;5038720;28;20491;-59
2021/07/01 11:15:04;;;;;;;2.60;2.50;;;23.10;99.90;;;;;;5044483;28;20909;-59
2021/07/01 11:17:31;;;;;;;3.00;2.90;;;22.80;99.90;;;;;;5038639;28;20440;-60
2021/07/01 11:19:56;;;;;;;2.57;2.47;;;23.00;99.90;;;;;;5048257;28;20432;-59
2021/07/01 11:22:42;;;;;;;3.10;2.90;;;23.50;1.00;;;;;;5039693;28;20426;-61
2021/07/01 11:25:23;;;;;;;2.90;2.80;;;24.10;99.90;;;;;;5030293;28;20170;-58
2021/07/01 11:27:49;;;;;;;3.40;3.27;;;24.60;1.00;;;;;;5047371;28;20982;-62
2021/07/01 11:30:25;;;;;;;3.10;3.00;;;25.30;1.00;;;;;;5047142;28;20531;-60
2021/07/01 11:33:11;;;;;;;3.20;3.00;;;25.10;1.00;;;;;;5032746;28;20180;-59
2021/07/01 11:35:37;;;;;;;3.23;3.13;;;24.80;1.00;;;;;;5037704;28;20423;-60
2021/07/01 11:38:03;;;;;;;3.80;3.60;;;24.50;1.00;;;;;;5048014;28;20918;-60
2021/07/01 11:40:28;;;;;;;3.63;3.43;;;24.30;1.00;;;;;;5048497;28;20190;-59
2021/07/01 11:42:54;;;;;;;3.30;3.10;;;24.10;1.00;;;;;;5048653;28;20185;-60
2021/07/01 11:45:21;;;;;;;3.70;3.50;;;24.00;1.00;;;;;;5048128;28;20800;-60
2021/07/01 11:47:50;;;;;;;3.07;2.87;;;24.00;1.00;;;;;;5036914;28;20782;-59
2021/07/01 11:50:15;;;;;;;4.00;3.70;;;24.20;1.00;;;;;;5047372;28;20650;-60
2021/07/01 11:52:42;;;;;;;3.53;3.33;;;24.30;1.00;;;;;;5048641;28;20986;-67
2021/07/01 11:55:08;;;;;;;3.70;3.50;;;23.90;1.00;;;;;;5046392;28;20616;-60
2021/07/01 11:57:34;;;;;;;3.90;3.70;;;23.60;99.90;;;;;;5048750;28;20557;-68
2021/07/01 11:59:59;;;;;;;3.93;3.40;;;23.50;64.40;;;;;;5045959;28;20503;-59
2021/07/01 12:02:25;;;;;;;4.33;3.90;;;22.90;99.90;;;;;;5046421;28;20197;-60
2021/07/01 12:04:51;;;;;;;4.03;3.53;;;22.50;1.00;;;;;;5033869;28;20185;-63
2021/07/01 12:07:25;;;;;;;4.30;4.10;;;22.00;99.90;;;;;;5047199;28;20186;-63
2021/07/01 12:09:54;;;;;;;4.27;4.07;;;22.00;1.00;;;;;;5034999;28;20185;-60
2021/07/01 12:12:25;;;;;;;6.70;4.37;;;22.10;53.30;;;;;;5048282;28;20416;-68
2021/07/01 12:15:09;;;;;;;4.03;3.83;;;22.10;1.00;;;;;;5045286;28;20440;-60
2021/07/01 12:17:51;;;;;;;4.27;4.07;;;22.30;8.70;;;;;;5037485;28;20431;-60
2021/07/01 12:20:38;;;;;;;4.50;4.30;;;22.40;1.00;;;;;;5034038;28;20428;-56
2021/07/01 12:23:10;;;;;;;4.07;3.87;;;22.40;1.00;;;;;;5044954;28;20427;-60
2021/07/01 12:25:42;;;;;;;4.50;4.30;;;22.50;59.10;;;;;;5031727;28;20432;-59
2021/07/01 12:28:10;;;;;;;3.73;3.53;;;23.10;1.00;;;;;;5032103;28;20433;-60
2021/07/01 12:30:56;;;;;;;4.10;3.90;;;23.60;1.00;;;;;;5051664;28;20799;-66
2021/07/01 12:33:57;;;;;;;3.80;3.60;;;24.30;99.90;;;;;;5040137;28;20934;-59
2021/07/01 12:36:35;;;;;;;3.90;3.70;;;24.70;1.00;;;;;;5045026;28;20443;-64
2021/07/01 12:39:06;;;;;;;3.67;3.47;;;25.30;1.00;;;;;;5048173;28;20569;-58
2021/07/01 12:41:33;;;;;;;3.90;3.70;;;25.50;1.00;;;;;;5051792;28;20185;-66
2021/07/01 12:44:07;;;;;;;3.97;3.77;;;25.60;1.00;;;;;;5051221;28;20504;-59
2021/07/01 12:46:41;;;;;;;4.10;3.55;;;26.20;99.90;;;;;;5042746;28;20468;-59
2021/07/01 12:49:24;;;;;;;3.60;3.30;;;26.40;99.90;;;;;;5042834;28;20216;-64
2021/07/01 12:51:54;;;;;;;3.90;3.70;;;27.20;99.90;;;;;;5037710;28;20503;-58
2021/07/01 12:54:23;;;;;;;4.40;4.20;;;27.30;99.90;;;;;;5050849;28;20415;-59
2021/07/01 12:57:01;;;;;;;3.75;3.55;;;27.10;99.90;;;;;;5034101;28;20425;-58
2021/07/01 12:59:29;;;;;;;3.80;3.50;;;26.70;99.90;;;;;;5043885;28;20221;-59
2021/07/01 13:02:01;;;;;;;3.93;3.63;;;26.60;99.90;;;;;;5050053;28;20476;-60